sensor_id;sensor_type;location;lat;lon;timestamp;P1;durP1;ratioP1;P2;durP2;ratioP2
17566;SDS011;8901;52.088;5.084;2022-12-07T00:00:51;29.37;;;27.67;;
17566;SDS011;8901;52.088;5.084;2022-12-07T00:03:18;33.47;;;31.57;;
17566;SDS011;8901;52.088;5.084;2022-12-07T00:05:45;34.00;;;31.70;;
17566;SDS011;8901;52.088;5.084;2022-12-07T00:08:12;33.13;;;31.30;;
17566;SDS011;8901;52.088;5.084;2022-12-07T00:10:39;30.37;;;28.37;;
17566;SDS011;8901;52.088;5.084;2022-12-07T00:13:07;30.10;;;28.30;;
17566;SDS011;8901;52.088;5.084;2022-12-07T00:15:35;31.47;;;29.47;;
17566;SDS011;8901;52.088;5.084;2022-12-07T00:18:02;31.83;;;29.83;;
17566;SDS011;8901;52.088;5.084;2022-12-07T00:20:29;32.57;;;30.70;;
17566;SDS011;8901;52.088;5.084;2022-12-07T00:22:58;29.90;;;28.20;;
17566;SDS011;8901;52.088;5.084;2022-12-07T00:25:25;30.43;;;28.73;;
17566;SDS011;8901;52.088;5.084;2022-12-07T00:27:53;32.33;;;30.20;;
17566;SDS011;8901;52.088;5.084;2022-12-07T00:30:21;31.93;;;30.07;;
17566;SDS011;8901;52.088;5.084;2022-12-07T00:32:50;30.47;;;28.73;;
17566;SDS011;8901;52.088;5.084;2022-12-07T00:35:17;32.20;;;30.43;;
17566;SDS011;8901;52.088;5.084;2022-12-07T00:37:44;31.87;;;29.97;;
17566;SDS011;8901;52.088;5.084;2022-12-07T00:40:12;32.63;;;30.80;;
17566;SDS011;8901;52.088;5.084;2022-12-07T00:42:39;35.20;;;32.83;;
17566;SDS011;8901;52.088;5.084;2022-12-07T00:45:07;36.20;;;33.90;;
17566;SDS011;8901;52.088;5.084;2022-12-07T00:50:40;34.40;;;32.40;;
17566;SDS011;8901;52.088;5.084;2022-12-07T00:58:44;35.70;;;33.57;;
17566;SDS011;8901;52.088;5.084;2022-12-07T01:01:12;37.20;;;35.00;;
17566;SDS011;8901;52.088;5.084;2022-12-07T01:03:39;34.33;;;32.43;;
17566;SDS011;8901;52.088;5.084;2022-12-07T01:06:07;35.87;;;33.67;;
17566;SDS011;8901;52.088;5.084;2022-12-07T01:08:36;34.33;;;32.17;;
17566;SDS011;8901;52.088;5.084;2022-12-07T01:11:03;36.10;;;33.97;;
17566;SDS011;8901;52.088;5.084;2022-12-07T01:13:31;34.77;;;32.67;;
17566;SDS011;8901;52.088;5.084;2022-12-07T01:15:59;34.77;;;32.77;;
17566;SDS011;8901;52.088;5.084;2022-12-07T01:18:29;35.23;;;33.30;;
17566;SDS011;8901;52.088;5.084;2022-12-07T01:21:04;33.73;;;31.63;;
17566;SDS011;8901;52.088;5.084;2022-12-07T01:23:33;33.00;;;30.80;;
17566;SDS011;8901;52.088;5.084;2022-12-07T01:26:02;35.10;;;32.97;;
17566;SDS011;8901;52.088;5.084;2022-12-07T01:28:31;33.77;;;31.70;;
17566;SDS011;8901;52.088;5.084;2022-12-07T01:30:59;36.57;;;34.30;;
17566;SDS011;8901;52.088;5.084;2022-12-07T01:33:26;34.27;;;32.20;;
17566;SDS011;8901;52.088;5.084;2022-12-07T01:36:00;38.07;;;35.87;;
17566;SDS011;8901;52.088;5.084;2022-12-07T01:38:27;34.10;;;32.00;;
17566;SDS011;8901;52.088;5.084;2022-12-07T01:40:58;35.30;;;33.27;;
17566;SDS011;8901;52.088;5.084;2022-12-07T01:43:26;36.53;;;34.13;;
17566;SDS011;8901;52.088;5.084;2022-12-07T01:45:54;36.10;;;33.83;;
17566;SDS011;8901;52.088;5.084;2022-12-07T01:48:22;35.83;;;33.70;;
17566;SDS011;8901;52.088;5.084;2022-12-07T01:50:52;36.40;;;34.30;;
17566;SDS011;8901;52.088;5.084;2022-12-07T01:53:22;38.43;;;35.83;;
17566;SDS011;8901;52.088;5.084;2022-12-07T01:55:58;39.20;;;36.43;;
17566;SDS011;8901;52.088;5.084;2022-12-07T01:58:25;36.23;;;34.03;;
17566;SDS011;8901;52.088;5.084;2022-12-07T02:00:55;33.30;;;31.27;;
17566;SDS011;8901;52.088;5.084;2022-12-07T02:03:23;36.10;;;34.10;;
17566;SDS011;8901;52.088;5.084;2022-12-07T02:05:52;34.60;;;32.37;;
17566;SDS011;8901;52.088;5.084;2022-12-07T02:08:20;33.00;;;30.93;;
17566;SDS011;8901;52.088;5.084;2022-12-07T02:10:49;31.50;;;29.67;;
17566;SDS011;8901;52.088;5.084;2022-12-07T02:13:18;29.83;;;27.63;;
17566;SDS011;8901;52.088;5.084;2022-12-07T02:15:55;32.33;;;30.40;;
17566;SDS011;8901;52.088;5.084;2022-12-07T02:18:38;29.17;;;27.37;;
17566;SDS011;8901;52.088;5.084;2022-12-07T02:21:13;31.07;;;29.07;;
17566;SDS011;8901;52.088;5.084;2022-12-07T02:24:03;30.30;;;28.50;;
17566;SDS011;8901;52.088;5.084;2022-12-07T02:26:44;30.50;;;28.80;;
17566;SDS011;8901;52.088;5.084;2022-12-07T02:29:18;32.27;;;30.37;;
17566;SDS011;8901;52.088;5.084;2022-12-07T02:31:49;32.63;;;30.43;;
17566;SDS011;8901;52.088;5.084;2022-12-07T02:34:19;30.70;;;28.90;;
17566;SDS011;8901;52.088;5.084;2022-12-07T02:36:51;32.87;;;30.77;;
17566;SDS011;8901;52.088;5.084;2022-12-07T02:39:20;33.30;;;31.40;;
17566;SDS011;8901;52.088;5.084;2022-12-07T02:41:51;30.33;;;28.57;;
17566;SDS011;8901;52.088;5.084;2022-12-07T02:44:22;33.03;;;31.07;;
17566;SDS011;8901;52.088;5.084;2022-12-07T02:46:51;31.83;;;29.80;;
17566;SDS011;8901;52.088;5.084;2022-12-07T02:49:20;32.53;;;30.67;;
17566;SDS011;8901;52.088;5.084;2022-12-07T02:51:48;31.97;;;30.23;;
17566;SDS011;8901;52.088;5.084;2022-12-07T02:54:16;32.23;;;30.33;;
17566;SDS011;8901;52.088;5.084;2022-12-07T02:56:45;32.50;;;30.70;;
17566;SDS011;8901;52.088;5.084;2022-12-07T02:59:15;32.60;;;30.60;;
17566;SDS011;8901;52.088;5.084;2022-12-07T03:01:47;31.93;;;29.83;;
17566;SDS011;8901;52.088;5.084;2022-12-07T03:04:20;31.97;;;30.13;;
17566;SDS011;8901;52.088;5.084;2022-12-07T03:06:50;31.87;;;30.07;;
17566;SDS011;8901;52.088;5.084;2022-12-07T03:09:22;31.80;;;29.80;;
17566;SDS011;8901;52.088;5.084;2022-12-07T03:11:54;30.93;;;29.10;;
17566;SDS011;8901;52.088;5.084;2022-12-07T03:14:27;31.07;;;29.37;;
17566;SDS011;8901;52.088;5.084;2022-12-07T03:17:00;33.90;;;31.93;;
17566;SDS011;8901;52.088;5.084;2022-12-07T03:19:29;32.07;;;30.23;;
17566;SDS011;8901;52.088;5.084;2022-12-07T03:21:59;31.07;;;29.20;;
17566;SDS011;8901;52.088;5.084;2022-12-07T03:24:27;35.67;;;33.67;;
17566;SDS011;8901;52.088;5.084;2022-12-07T03:26:58;34.57;;;32.57;;
17566;SDS011;8901;52.088;5.084;2022-12-07T03:29:27;33.47;;;31.67;;
17566;SDS011;8901;52.088;5.084;2022-12-07T03:31:57;34.77;;;32.97;;
17566;SDS011;8901;52.088;5.084;2022-12-07T03:34:28;33.43;;;31.47;;
17566;SDS011;8901;52.088;5.084;2022-12-07T03:36:57;30.93;;;29.10;;
17566;SDS011;8901;52.088;5.084;2022-12-07T03:39:26;33.63;;;31.50;;
17566;SDS011;8901;52.088;5.084;2022-12-07T03:41:54;30.77;;;28.97;;
17566;SDS011;8901;52.088;5.084;2022-12-07T03:44:21;35.70;;;33.70;;
17566;SDS011;8901;52.088;5.084;2022-12-07T03:46:50;37.20;;;35.20;;
17566;SDS011;8901;52.088;5.084;2022-12-07T03:49:21;37.47;;;35.53;;
17566;SDS011;8901;52.088;5.084;2022-12-07T03:51:53;36.77;;;34.83;;
17566;SDS011;8901;52.088;5.084;2022-12-07T03:54:23;34.93;;;33.13;;
17566;SDS011;8901;52.088;5.084;2022-12-07T03:56:51;33.43;;;31.67;;
17566;SDS011;8901;52.088;5.084;2022-12-07T03:59:19;34.40;;;32.30;;
17566;SDS011;8901;52.088;5.084;2022-12-07T04:01:51;32.40;;;30.60;;
17566;SDS011;8901;52.088;5.084;2022-12-07T04:04:19;32.87;;;31.17;;
17566;SDS011;8901;52.088;5.084;2022-12-07T04:06:46;32.07;;;30.20;;
17566;SDS011;8901;52.088;5.084;2022-12-07T04:09:14;32.90;;;31.20;;
17566;SDS011;8901;52.088;5.084;2022-12-07T04:11:42;31.00;;;29.30;;
17566;SDS011;8901;52.088;5.084;2022-12-07T04:14:09;37.27;;;35.17;;
17566;SDS011;8901;52.088;5.084;2022-12-07T04:16:45;37.17;;;35.00;;
17566;SDS011;8901;52.088;5.084;2022-12-07T04:19:13;35.53;;;33.43;;
17566;SDS011;8901;52.088;5.084;2022-12-07T04:21:40;34.30;;;32.40;;
17566;SDS011;8901;52.088;5.084;2022-12-07T04:24:07;33.47;;;31.67;;
17566;SDS011;8901;52.088;5.084;2022-12-07T04:26:36;33.20;;;31.50;;
17566;SDS011;8901;52.088;5.084;2022-12-07T04:29:03;33.90;;;32.03;;
17566;SDS011;8901;52.088;5.084;2022-12-07T04:31:30;35.30;;;33.37;;
17566;SDS011;8901;52.088;5.084;2022-12-07T04:33:57;32.80;;;30.97;;
17566;SDS011;8901;52.088;5.084;2022-12-07T04:36:24;34.87;;;32.87;;
17566;SDS011;8901;52.088;5.084;2022-12-07T04:38:52;34.47;;;32.60;;
17566;SDS011;8901;52.088;5.084;2022-12-07T04:41:20;35.27;;;33.03;;
17566;SDS011;8901;52.088;5.084;2022-12-07T04:43:53;34.13;;;32.23;;
17566;SDS011;8901;52.088;5.084;2022-12-07T04:46:21;35.63;;;33.60;;
17566;SDS011;8901;52.088;5.084;2022-12-07T04:48:48;34.27;;;32.47;;
17566;SDS011;8901;52.088;5.084;2022-12-07T04:51:15;32.77;;;30.93;;
17566;SDS011;8901;52.088;5.084;2022-12-07T04:53:45;30.50;;;28.73;;
17566;SDS011;8901;52.088;5.084;2022-12-07T04:56:13;32.83;;;31.03;;
17566;SDS011;8901;52.088;5.084;2022-12-07T04:58:40;31.73;;;30.03;;
17566;SDS011;8901;52.088;5.084;2022-12-07T05:01:09;33.70;;;31.70;;
17566;SDS011;8901;52.088;5.084;2022-12-07T05:03:36;31.27;;;29.37;;
17566;SDS011;8901;52.088;5.084;2022-12-07T05:06:03;30.93;;;29.13;;
17566;SDS011;8901;52.088;5.084;2022-12-07T05:08:31;29.50;;;27.63;;
17566;SDS011;8901;52.088;5.084;2022-12-07T05:10:58;30.60;;;28.63;;
17566;SDS011;8901;52.088;5.084;2022-12-07T05:13:26;33.20;;;31.37;;
17566;SDS011;8901;52.088;5.084;2022-12-07T05:15:53;31.50;;;29.60;;
17566;SDS011;8901;52.088;5.084;2022-12-07T05:18:21;33.50;;;31.60;;
17566;SDS011;8901;52.088;5.084;2022-12-07T05:20:49;36.13;;;34.23;;
17566;SDS011;8901;52.088;5.084;2022-12-07T05:23:16;34.57;;;32.57;;
17566;SDS011;8901;52.088;5.084;2022-12-07T05:25:44;36.93;;;34.57;;
17566;SDS011;8901;52.088;5.084;2022-12-07T05:28:11;35.10;;;33.20;;
17566;SDS011;8901;52.088;5.084;2022-12-07T05:30:38;35.40;;;33.17;;
17566;SDS011;8901;52.088;5.084;2022-12-07T05:33:05;34.50;;;32.60;;
17566;SDS011;8901;52.088;5.084;2022-12-07T05:35:34;31.87;;;30.07;;
17566;SDS011;8901;52.088;5.084;2022-12-07T05:38:02;34.00;;;32.10;;
17566;SDS011;8901;52.088;5.084;2022-12-07T05:40:30;34.80;;;32.27;;
17566;SDS011;8901;52.088;5.084;2022-12-07T05:42:57;31.17;;;29.03;;
17566;SDS011;8901;52.088;5.084;2022-12-07T05:45:24;30.17;;;28.13;;
17566;SDS011;8901;52.088;5.084;2022-12-07T05:47:51;28.90;;;27.10;;
17566;SDS011;8901;52.088;5.084;2022-12-07T05:50:18;28.17;;;26.57;;
17566;SDS011;8901;52.088;5.084;2022-12-07T05:52:47;30.73;;;28.87;;
17566;SDS011;8901;52.088;5.084;2022-12-07T05:55:14;31.17;;;29.37;;
17566;SDS011;8901;52.088;5.084;2022-12-07T05:57:41;32.33;;;30.10;;
17566;SDS011;8901;52.088;5.084;2022-12-07T06:00:29;29.93;;;27.93;;
17566;SDS011;8901;52.088;5.084;2022-12-07T06:02:55;32.70;;;30.57;;
17566;SDS011;8901;52.088;5.084;2022-12-07T06:05:22;31.00;;;29.27;;
17566;SDS011;8901;52.088;5.084;2022-12-07T06:07:50;29.60;;;27.63;;
17566;SDS011;8901;52.088;5.084;2022-12-07T06:10:18;29.70;;;27.80;;
17566;SDS011;8901;52.088;5.084;2022-12-07T06:12:46;27.70;;;25.90;;
17566;SDS011;8901;52.088;5.084;2022-12-07T06:15:12;26.10;;;24.20;;
17566;SDS011;8901;52.088;5.084;2022-12-07T06:17:39;25.80;;;23.77;;
17566;SDS011;8901;52.088;5.084;2022-12-07T06:20:07;27.33;;;25.43;;
17566;SDS011;8901;52.088;5.084;2022-12-07T06:22:34;25.53;;;23.60;;
17566;SDS011;8901;52.088;5.084;2022-12-07T06:25:02;27.23;;;25.30;;
17566;SDS011;8901;52.088;5.084;2022-12-07T06:27:30;27.20;;;25.63;;
17566;SDS011;8901;52.088;5.084;2022-12-07T06:29:57;24.27;;;22.97;;
17566;SDS011;8901;52.088;5.084;2022-12-07T06:32:25;24.80;;;23.30;;
17566;SDS011;8901;52.088;5.084;2022-12-07T06:34:52;25.17;;;23.67;;
17566;SDS011;8901;52.088;5.084;2022-12-07T06:37:19;27.97;;;26.27;;
17566;SDS011;8901;52.088;5.084;2022-12-07T06:39:46;25.50;;;24.10;;
17566;SDS011;8901;52.088;5.084;2022-12-07T06:42:15;28.47;;;26.60;;
17566;SDS011;8901;52.088;5.084;2022-12-07T06:44:42;26.00;;;24.40;;
17566;SDS011;8901;52.088;5.084;2022-12-07T06:47:10;26.40;;;24.63;;
17566;SDS011;8901;52.088;5.084;2022-12-07T06:49:37;26.23;;;24.33;;
17566;SDS011;8901;52.088;5.084;2022-12-07T06:52:05;25.87;;;24.03;;
17566;SDS011;8901;52.088;5.084;2022-12-07T06:54:32;23.77;;;22.27;;
17566;SDS011;8901;52.088;5.084;2022-12-07T06:56:59;24.90;;;23.20;;
17566;SDS011;8901;52.088;5.084;2022-12-07T06:59:27;24.57;;;23.00;;
17566;SDS011;8901;52.088;5.084;2022-12-07T07:01:55;24.27;;;22.53;;
17566;SDS011;8901;52.088;5.084;2022-12-07T07:04:22;23.87;;;22.27;;
17566;SDS011;8901;52.088;5.084;2022-12-07T07:06:49;24.40;;;22.70;;
17566;SDS011;8901;52.088;5.084;2022-12-07T07:09:17;22.30;;;20.60;;
17566;SDS011;8901;52.088;5.084;2022-12-07T07:11:44;24.53;;;22.50;;
17566;SDS011;8901;52.088;5.084;2022-12-07T07:14:11;23.57;;;21.57;;
17566;SDS011;8901;52.088;5.084;2022-12-07T07:16:45;20.40;;;18.80;;
17566;SDS011;8901;52.088;5.084;2022-12-07T07:19:13;21.10;;;19.33;;
17566;SDS011;8901;52.088;5.084;2022-12-07T07:21:41;21.27;;;19.87;;
17566;SDS011;8901;52.088;5.084;2022-12-07T07:24:09;21.80;;;20.30;;
17566;SDS011;8901;52.088;5.084;2022-12-07T07:26:36;24.07;;;22.67;;
17566;SDS011;8901;52.088;5.084;2022-12-07T07:29:03;25.93;;;24.03;;
17566;SDS011;8901;52.088;5.084;2022-12-07T07:31:30;23.23;;;21.80;;
17566;SDS011;8901;52.088;5.084;2022-12-07T07:34:01;22.83;;;21.50;;
17566;SDS011;8901;52.088;5.084;2022-12-07T07:36:28;24.07;;;22.57;;
17566;SDS011;8901;52.088;5.084;2022-12-07T07:38:56;25.27;;;23.70;;
17566;SDS011;8901;52.088;5.084;2022-12-07T07:41:23;27.03;;;24.93;;
17566;SDS011;8901;52.088;5.084;2022-12-07T07:43:50;24.23;;;22.40;;
17566;SDS011;8901;52.088;5.084;2022-12-07T07:46:17;24.00;;;22.40;;
17566;SDS011;8901;52.088;5.084;2022-12-07T07:48:44;23.53;;;22.13;;
17566;SDS011;8901;52.088;5.084;2022-12-07T07:51:13;21.93;;;20.33;;
17566;SDS011;8901;52.088;5.084;2022-12-07T07:53:40;24.17;;;22.57;;
17566;SDS011;8901;52.088;5.084;2022-12-07T07:56:07;25.80;;;24.03;;
17566;SDS011;8901;52.088;5.084;2022-12-07T07:58:34;23.97;;;22.47;;
17566;SDS011;8901;52.088;5.084;2022-12-07T08:01:04;23.30;;;21.80;;
17566;SDS011;8901;52.088;5.084;2022-12-07T08:03:31;22.87;;;21.37;;
17566;SDS011;8901;52.088;5.084;2022-12-07T08:05:58;25.73;;;23.30;;
17566;SDS011;8901;52.088;5.084;2022-12-07T08:08:27;25.93;;;23.90;;
17566;SDS011;8901;52.088;5.084;2022-12-07T08:10:54;27.43;;;25.83;;
17566;SDS011;8901;52.088;5.084;2022-12-07T08:13:21;27.60;;;25.80;;
17566;SDS011;8901;52.088;5.084;2022-12-07T08:15:48;28.60;;;26.90;;
17566;SDS011;8901;52.088;5.084;2022-12-07T08:18:15;29.23;;;27.37;;
17566;SDS011;8901;52.088;5.084;2022-12-07T08:20:42;27.60;;;25.83;;
17566;SDS011;8901;52.088;5.084;2022-12-07T08:23:10;28.20;;;26.67;;
17566;SDS011;8901;52.088;5.084;2022-12-07T08:25:40;28.83;;;26.83;;
17566;SDS011;8901;52.088;5.084;2022-12-07T08:28:08;28.37;;;26.63;;
17566;SDS011;8901;52.088;5.084;2022-12-07T08:30:35;25.30;;;23.80;;
17566;SDS011;8901;52.088;5.084;2022-12-07T08:33:02;24.10;;;22.53;;
17566;SDS011;8901;52.088;5.084;2022-12-07T08:35:29;22.37;;;20.97;;
17566;SDS011;8901;52.088;5.084;2022-12-07T08:37:56;22.97;;;21.47;;
17566;SDS011;8901;52.088;5.084;2022-12-07T08:40:23;23.50;;;21.77;;
17566;SDS011;8901;52.088;5.084;2022-12-07T08:42:52;23.80;;;22.37;;
17566;SDS011;8901;52.088;5.084;2022-12-07T08:45:20;24.53;;;22.50;;
17566;SDS011;8901;52.088;5.084;2022-12-07T08:47:48;23.10;;;21.70;;
17566;SDS011;8901;52.088;5.084;2022-12-07T08:50:16;26.27;;;24.40;;
17566;SDS011;8901;52.088;5.084;2022-12-07T08:52:44;23.90;;;22.27;;
17566;SDS011;8901;52.088;5.084;2022-12-07T08:55:14;25.20;;;23.70;;
17566;SDS011;8901;52.088;5.084;2022-12-07T08:57:41;25.53;;;23.93;;
17566;SDS011;8901;52.088;5.084;2022-12-07T09:00:11;25.60;;;23.97;;
17566;SDS011;8901;52.088;5.084;2022-12-07T09:02:38;24.07;;;22.60;;
17566;SDS011;8901;52.088;5.084;2022-12-07T09:05:06;23.07;;;21.57;;
17566;SDS011;8901;52.088;5.084;2022-12-07T09:07:33;24.70;;;22.97;;
17566;SDS011;8901;52.088;5.084;2022-12-07T09:10:01;24.63;;;22.67;;
17566;SDS011;8901;52.088;5.084;2022-12-07T09:12:28;25.77;;;24.03;;
17566;SDS011;8901;52.088;5.084;2022-12-07T09:14:55;26.33;;;24.70;;
17566;SDS011;8901;52.088;5.084;2022-12-07T09:17:23;26.13;;;24.50;;
17566;SDS011;8901;52.088;5.084;2022-12-07T09:19:51;27.20;;;25.33;;
17566;SDS011;8901;52.088;5.084;2022-12-07T09:22:18;28.10;;;26.27;;
17566;SDS011;8901;52.088;5.084;2022-12-07T09:24:45;27.60;;;25.60;;
17566;SDS011;8901;52.088;5.084;2022-12-07T09:27:12;26.70;;;25.00;;
17566;SDS011;8901;52.088;5.084;2022-12-07T09:29:40;27.80;;;25.53;;
17566;SDS011;8901;52.088;5.084;2022-12-07T09:32:07;25.17;;;23.57;;
17566;SDS011;8901;52.088;5.084;2022-12-07T09:34:36;25.23;;;23.73;;
17566;SDS011;8901;52.088;5.084;2022-12-07T09:37:03;24.53;;;23.13;;
17566;SDS011;8901;52.088;5.084;2022-12-07T09:39:31;23.93;;;22.43;;
17566;SDS011;8901;52.088;5.084;2022-12-07T09:41:58;24.77;;;23.03;;
17566;SDS011;8901;52.088;5.084;2022-12-07T09:44:26;24.37;;;22.70;;
17566;SDS011;8901;52.088;5.084;2022-12-07T09:46:54;26.63;;;24.93;;
17566;SDS011;8901;52.088;5.084;2022-12-07T09:49:22;25.30;;;23.53;;
17566;SDS011;8901;52.088;5.084;2022-12-07T09:51:59;26.27;;;24.57;;
17566;SDS011;8901;52.088;5.084;2022-12-07T09:54:27;26.97;;;25.23;;
17566;SDS011;8901;52.088;5.084;2022-12-07T09:56:55;27.37;;;25.33;;
17566;SDS011;8901;52.088;5.084;2022-12-07T09:59:22;28.70;;;26.83;;
17566;SDS011;8901;52.088;5.084;2022-12-07T10:01:50;29.60;;;27.57;;
17566;SDS011;8901;52.088;5.084;2022-12-07T10:04:18;28.43;;;26.50;;
17566;SDS011;8901;52.088;5.084;2022-12-07T10:06:46;26.37;;;24.57;;
17566;SDS011;8901;52.088;5.084;2022-12-07T10:09:15;29.20;;;27.30;;
17566;SDS011;8901;52.088;5.084;2022-12-07T10:12:02;25.03;;;23.47;;
17566;SDS011;8901;52.088;5.084;2022-12-07T10:14:31;26.50;;;24.77;;
17566;SDS011;8901;52.088;5.084;2022-12-07T10:17:00;25.20;;;23.20;;
17566;SDS011;8901;52.088;5.084;2022-12-07T10:19:30;24.37;;;22.70;;
17566;SDS011;8901;52.088;5.084;2022-12-07T10:24:47;25.23;;;23.63;;
17566;SDS011;8901;52.088;5.084;2022-12-07T10:27:18;26.10;;;24.40;;
17566;SDS011;8901;52.088;5.084;2022-12-07T10:29:47;25.50;;;23.77;;
17566;SDS011;8901;52.088;5.084;2022-12-07T10:32:27;25.90;;;24.33;;
17566;SDS011;8901;52.088;5.084;2022-12-07T10:35:15;26.27;;;24.70;;
17566;SDS011;8901;52.088;5.084;2022-12-07T10:37:45;26.97;;;25.17;;
17566;SDS011;8901;52.088;5.084;2022-12-07T10:40:25;26.67;;;25.10;;
17566;SDS011;8901;52.088;5.084;2022-12-07T10:43:00;22.67;;;21.17;;
17566;SDS011;8901;52.088;5.084;2022-12-07T10:45:28;26.33;;;24.57;;
17566;SDS011;8901;52.088;5.084;2022-12-07T10:47:55;24.27;;;22.63;;
17566;SDS011;8901;52.088;5.084;2022-12-07T10:50:28;25.90;;;24.30;;
17566;SDS011;8901;52.088;5.084;2022-12-07T10:52:59;23.90;;;22.50;;
17566;SDS011;8901;52.088;5.084;2022-12-07T10:55:35;22.87;;;21.17;;
17566;SDS011;8901;52.088;5.084;2022-12-07T10:58:21;23.30;;;21.80;;
17566;SDS011;8901;52.088;5.084;2022-12-07T11:00:52;25.37;;;23.50;;
17566;SDS011;8901;52.088;5.084;2022-12-07T11:03:33;21.90;;;20.50;;
17566;SDS011;8901;52.088;5.084;2022-12-07T11:06:07;23.40;;;21.90;;
17566;SDS011;8901;52.088;5.084;2022-12-07T11:08:39;22.77;;;21.20;;
17566;SDS011;8901;52.088;5.084;2022-12-07T11:11:14;23.83;;;22.33;;
17566;SDS011;8901;52.088;5.084;2022-12-07T11:13:44;22.60;;;21.20;;
17566;SDS011;8901;52.088;5.084;2022-12-07T11:16:21;24.97;;;23.27;;
17566;SDS011;8901;52.088;5.084;2022-12-07T11:18:54;26.20;;;24.70;;
17566;SDS011;8901;52.088;5.084;2022-12-07T11:21:27;25.17;;;23.33;;
17566;SDS011;8901;52.088;5.084;2022-12-07T11:24:00;24.60;;;23.10;;
17566;SDS011;8901;52.088;5.084;2022-12-07T11:26:38;24.93;;;23.43;;
17566;SDS011;8901;52.088;5.084;2022-12-07T11:29:13;24.60;;;23.10;;
17566;SDS011;8901;52.088;5.084;2022-12-07T11:31:47;25.43;;;23.63;;
17566;SDS011;8901;52.088;5.084;2022-12-07T11:34:19;25.40;;;24.00;;
17566;SDS011;8901;52.088;5.084;2022-12-07T11:36:53;27.87;;;25.93;;
17566;SDS011;8901;52.088;5.084;2022-12-07T11:39:23;24.73;;;23.33;;
17566;SDS011;8901;52.088;5.084;2022-12-07T11:41:54;26.40;;;24.57;;
17566;SDS011;8901;52.088;5.084;2022-12-07T11:44:26;24.93;;;22.77;;
17566;SDS011;8901;52.088;5.084;2022-12-07T11:46:58;25.80;;;24.13;;
17566;SDS011;8901;52.088;5.084;2022-12-07T11:49:32;25.87;;;24.43;;
17566;SDS011;8901;52.088;5.084;2022-12-07T11:52:04;26.33;;;24.83;;
17566;SDS011;8901;52.088;5.084;2022-12-07T11:54:34;24.10;;;22.63;;
17566;SDS011;8901;52.088;5.084;2022-12-07T11:57:05;22.33;;;20.63;;
17566;SDS011;8901;52.088;5.084;2022-12-07T11:59:38;24.40;;;22.83;;
17566;SDS011;8901;52.088;5.084;2022-12-07T12:02:11;22.80;;;20.90;;
17566;SDS011;8901;52.088;5.084;2022-12-07T12:04:43;26.20;;;24.60;;
17566;SDS011;8901;52.088;5.084;2022-12-07T12:07:14;26.50;;;24.80;;
17566;SDS011;8901;52.088;5.084;2022-12-07T12:09:45;27.67;;;25.93;;
17566;SDS011;8901;52.088;5.084;2022-12-07T12:12:27;27.87;;;26.10;;
17566;SDS011;8901;52.088;5.084;2022-12-07T12:15:02;25.90;;;24.20;;
17566;SDS011;8901;52.088;5.084;2022-12-07T12:17:43;26.47;;;24.77;;
17566;SDS011;8901;52.088;5.084;2022-12-07T12:20:17;22.83;;;21.63;;
17566;SDS011;8901;52.088;5.084;2022-12-07T12:22:47;25.23;;;23.80;;
17566;SDS011;8901;52.088;5.084;2022-12-07T12:25:19;25.33;;;23.63;;
17566;SDS011;8901;52.088;5.084;2022-12-07T12:27:48;25.43;;;23.73;;
17566;SDS011;8901;52.088;5.084;2022-12-07T12:30:32;27.37;;;25.70;;
17566;SDS011;8901;52.088;5.084;2022-12-07T12:33:04;23.27;;;21.77;;
17566;SDS011;8901;52.088;5.084;2022-12-07T12:35:33;22.50;;;20.93;;
17566;SDS011;8901;52.088;5.084;2022-12-07T12:40:46;21.80;;;20.60;;
17566;SDS011;8901;52.088;5.084;2022-12-07T12:48:54;24.10;;;22.30;;
17566;SDS011;8901;52.088;5.084;2022-12-07T12:51:38;26.50;;;24.70;;
17566;SDS011;8901;52.088;5.084;2022-12-07T12:54:08;24.87;;;23.27;;
17566;SDS011;8901;52.088;5.084;2022-12-07T12:56:39;24.37;;;22.60;;
17566;SDS011;8901;52.088;5.084;2022-12-07T13:02:14;24.50;;;23.07;;
17566;SDS011;8901;52.088;5.084;2022-12-07T13:10:08;27.67;;;26.07;;
17566;SDS011;8901;52.088;5.084;2022-12-07T13:12:54;26.07;;;24.57;;
17566;SDS011;8901;52.088;5.084;2022-12-07T13:15:32;28.53;;;26.77;;
17566;SDS011;8901;52.088;5.084;2022-12-07T13:18:01;27.40;;;25.80;;
17566;SDS011;8901;52.088;5.084;2022-12-07T13:20:42;25.40;;;23.73;;
17566;SDS011;8901;52.088;5.084;2022-12-07T13:23:10;23.33;;;22.03;;
17566;SDS011;8901;52.088;5.084;2022-12-07T13:25:44;22.97;;;21.30;;
17566;SDS011;8901;52.088;5.084;2022-12-07T13:28:16;22.87;;;21.40;;
17566;SDS011;8901;52.088;5.084;2022-12-07T13:33:28;27.70;;;26.20;;
17566;SDS011;8901;52.088;5.084;2022-12-07T13:35:56;23.77;;;22.37;;
17566;SDS011;8901;52.088;5.084;2022-12-07T13:38:26;22.33;;;21.00;;
17566;SDS011;8901;52.088;5.084;2022-12-07T13:41:10;22.73;;;21.23;;
17566;SDS011;8901;52.088;5.084;2022-12-07T13:46:24;22.20;;;20.90;;
17566;SDS011;8901;52.088;5.084;2022-12-07T13:48:52;22.20;;;20.83;;
17566;SDS011;8901;52.088;5.084;2022-12-07T13:51:22;20.27;;;18.90;;
17566;SDS011;8901;52.088;5.084;2022-12-07T13:53:50;21.50;;;20.10;;
17566;SDS011;8901;52.088;5.084;2022-12-07T13:56:22;21.30;;;19.93;;
17566;SDS011;8901;52.088;5.084;2022-12-07T13:58:53;22.13;;;20.83;;
17566;SDS011;8901;52.088;5.084;2022-12-07T14:01:20;27.43;;;25.53;;
17566;SDS011;8901;52.088;5.084;2022-12-07T14:03:47;23.20;;;21.67;;
17566;SDS011;8901;52.088;5.084;2022-12-07T14:09:08;21.90;;;20.70;;
17566;SDS011;8901;52.088;5.084;2022-12-07T14:11:37;23.80;;;22.40;;
17566;SDS011;8901;52.088;5.084;2022-12-07T14:14:04;25.30;;;23.90;;
17566;SDS011;8901;52.088;5.084;2022-12-07T14:16:32;21.30;;;20.00;;
17566;SDS011;8901;52.088;5.084;2022-12-07T14:19:03;26.13;;;24.43;;
17566;SDS011;8901;52.088;5.084;2022-12-07T14:21:33;24.23;;;22.93;;
17566;SDS011;8901;52.088;5.084;2022-12-07T14:24:15;28.67;;;26.93;;
17566;SDS011;8901;52.088;5.084;2022-12-07T14:26:47;30.27;;;28.47;;
17566;SDS011;8901;52.088;5.084;2022-12-07T14:29:22;30.50;;;28.63;;
17566;SDS011;8901;52.088;5.084;2022-12-07T14:31:56;34.00;;;31.90;;
17566;SDS011;8901;52.088;5.084;2022-12-07T14:34:23;29.30;;;27.40;;
17566;SDS011;8901;52.088;5.084;2022-12-07T14:36:51;31.77;;;30.07;;
17566;SDS011;8901;52.088;5.084;2022-12-07T14:39:19;30.30;;;28.30;;
17566;SDS011;8901;52.088;5.084;2022-12-07T14:41:47;32.17;;;30.13;;
17566;SDS011;8901;52.088;5.084;2022-12-07T14:44:18;222.33;;;165.27;;
17566;SDS011;8901;52.088;5.084;2022-12-07T14:46:45;167.37;;;123.97;;
17566;SDS011;8901;52.088;5.084;2022-12-07T14:49:12;75.27;;;58.07;;
17566;SDS011;8901;52.088;5.084;2022-12-07T14:51:42;28.43;;;26.20;;
17566;SDS011;8901;52.088;5.084;2022-12-07T14:54:11;34.00;;;31.20;;
17566;SDS011;8901;52.088;5.084;2022-12-07T14:56:40;29.60;;;27.80;;
17566;SDS011;8901;52.088;5.084;2022-12-07T14:59:10;25.43;;;24.03;;
17566;SDS011;8901;52.088;5.084;2022-12-07T15:01:38;29.57;;;28.07;;
17566;SDS011;8901;52.088;5.084;2022-12-07T15:04:06;28.50;;;27.00;;
17566;SDS011;8901;52.088;5.084;2022-12-07T15:06:33;30.50;;;28.80;;
17566;SDS011;8901;52.088;5.084;2022-12-07T15:09:00;28.07;;;26.40;;
17566;SDS011;8901;52.088;5.084;2022-12-07T15:11:29;26.37;;;24.97;;
17566;SDS011;8901;52.088;5.084;2022-12-07T15:13:56;28.07;;;26.57;;
17566;SDS011;8901;52.088;5.084;2022-12-07T15:16:38;26.07;;;24.70;;
17566;SDS011;8901;52.088;5.084;2022-12-07T15:19:10;27.40;;;25.97;;
17566;SDS011;8901;52.088;5.084;2022-12-07T15:21:44;30.50;;;28.70;;
17566;SDS011;8901;52.088;5.084;2022-12-07T15:24:12;28.37;;;26.67;;